sensor_id;sensor_type;location;lat;lon;timestamp;pressure;altitude;pressure_sealevel;temperature;humidity
63568;BME280;49715;42.386;20.434;2023-02-21T00:00:08;98000.19;;;3.61;55.17
63568;BME280;49715;42.386;20.434;2023-02-21T00:02:53;97993.81;;;3.66;55.06
63568;BME280;49715;42.386;20.434;2023-02-21T00:05:38;97990.03;;;3.71;55.02
63568;BME280;49715;42.386;20.434;2023-02-21T00:08:24;98000.91;;;3.78;55.00
63568;BME280;49715;42.386;20.434;2023-02-21T00:11:09;97995.22;;;3.85;54.47
63568;BME280;49715;42.386;20.434;2023-02-21T00:13:54;97991.47;;;3.90;54.49
63568;BME280;49715;42.386;20.434;2023-02-21T00:16:39;97991.41;;;3.91;53.79
63568;BME280;49715;42.386;20.434;2023-02-21T00:19:24;97990.84;;;3.86;54.11
63568;BME280;49715;42.386;20.434;2023-02-21T00:22:10;97997.38;;;3.79;53.68
63568;BME280;49715;42.386;20.434;2023-02-21T00:24:55;97999.59;;;3.71;54.63
63568;BME280;49715;42.386;20.434;2023-02-21T00:27:40;97994.22;;;3.59;54.80
63568;BME280;49715;42.386;20.434;2023-02-21T00:30:24;97997.19;;;3.53;55.01
63568;BME280;49715;42.386;20.434;2023-02-21T00:33:10;97993.19;;;3.48;54.56
63568;BME280;49715;42.386;20.434;2023-02-21T00:35:57;97982.09;;;3.44;55.21
63568;BME280;49715;42.386;20.434;2023-02-21T00:38:42;97978.56;;;3.45;55.39
63568;BME280;49715;42.386;20.434;2023-02-21T00:41:26;97979.41;;;3.46;54.27
63568;BME280;49715;42.386;20.434;2023-02-21T00:44:12;97982.38;;;3.40;54.51
63568;BME280;49715;42.386;20.434;2023-02-21T00:46:57;97976.50;;;3.36;55.56
63568;BME280;49715;42.386;20.434;2023-02-21T00:49:43;97975.88;;;3.32;55.21
63568;BME280;49715;42.386;20.434;2023-02-21T00:52:27;97971.78;;;3.28;55.99
63568;BME280;49715;42.386;20.434;2023-02-21T00:55:13;97966.56;;;3.28;54.49
63568;BME280;49715;42.386;20.434;2023-02-21T00:58:00;97959.97;;;3.23;54.81
63568;BME280;49715;42.386;20.434;2023-02-21T01:00:47;97971.00;;;3.26;55.80
63568;BME280;49715;42.386;20.434;2023-02-21T01:03:33;97962.63;;;3.21;56.38
63568;BME280;49715;42.386;20.434;2023-02-21T01:06:21;97953.44;;;3.16;56.04
63568;BME280;49715;42.386;20.434;2023-02-21T01:09:06;97954.47;;;3.13;55.95
63568;BME280;49715;42.386;20.434;2023-02-21T01:11:51;97952.75;;;3.12;55.98
63568;BME280;49715;42.386;20.434;2023-02-21T01:14:36;97941.44;;;3.13;55.31
63568;BME280;49715;42.386;20.434;2023-02-21T01:17:21;97946.72;;;3.12;55.81
63568;BME280;49715;42.386;20.434;2023-02-21T01:20:06;97947.66;;;3.10;55.80
63568;BME280;49715;42.386;20.434;2023-02-21T01:22:51;97941.50;;;3.12;55.15
63568;BME280;49715;42.386;20.434;2023-02-21T01:25:36;97935.56;;;3.09;55.43
63568;BME280;49715;42.386;20.434;2023-02-21T01:28:21;97931.28;;;3.08;55.57
63568;BME280;49715;42.386;20.434;2023-02-21T01:31:06;97930.63;;;3.05;54.56
63568;BME280;49715;42.386;20.434;2023-02-21T01:33:50;97921.44;;;2.99;56.00
63568;BME280;49715;42.386;20.434;2023-02-21T01:36:39;97932.00;;;2.96;56.86
63568;BME280;49715;42.386;20.434;2023-02-21T01:39:24;97929.78;;;2.90;56.33
63568;BME280;49715;42.386;20.434;2023-02-21T01:42:09;97923.06;;;2.86;55.50
63568;BME280;49715;42.386;20.434;2023-02-21T01:47:58;97916.91;;;2.73;56.64
63568;BME280;49715;42.386;20.434;2023-02-21T01:50:43;97917.28;;;2.67;56.30
63568;BME280;49715;42.386;20.434;2023-02-21T01:53:27;97913.16;;;2.63;56.12
63568;BME280;49715;42.386;20.434;2023-02-21T01:56:12;97922.06;;;2.58;56.33
63568;BME280;49715;42.386;20.434;2023-02-21T01:58:58;97918.84;;;2.55;55.57
63568;BME280;49715;42.386;20.434;2023-02-21T02:01:56;97910.63;;;2.47;55.70
63568;BME280;49715;42.386;20.434;2023-02-21T02:04:42;97910.47;;;2.34;56.52
63568;BME280;49715;42.386;20.434;2023-02-21T02:07:27;97904.06;;;2.25;57.54
63568;BME280;49715;42.386;20.434;2023-02-21T02:10:12;97909.69;;;2.18;56.01
63568;BME280;49715;42.386;20.434;2023-02-21T02:15:42;97904.69;;;1.99;57.16
63568;BME280;49715;42.386;20.434;2023-02-21T02:31:19;97915.00;;;1.53;56.58
63568;BME280;49715;42.386;20.434;2023-02-21T02:36:29;97900.31;;;1.36;58.29
63568;BME280;49715;42.386;20.434;2023-02-21T02:39:04;97903.00;;;1.35;56.87
63568;BME280;49715;42.386;20.434;2023-02-21T02:41:35;97903.44;;;1.27;58.71
63568;BME280;49715;42.386;20.434;2023-02-21T02:46:46;97887.66;;;1.30;58.42
63568;BME280;49715;42.386;20.434;2023-02-21T02:49:18;97889.34;;;1.31;60.99
63568;BME280;49715;42.386;20.434;2023-02-21T02:51:47;97888.50;;;1.31;59.29
63568;BME280;49715;42.386;20.434;2023-02-21T02:54:13;97885.59;;;1.37;58.73
63568;BME280;49715;42.386;20.434;2023-02-21T02:56:39;97882.72;;;1.41;59.58
63568;BME280;49715;42.386;20.434;2023-02-21T02:59:19;97874.88;;;1.43;58.40
63568;BME280;49715;42.386;20.434;2023-02-21T03:04:26;97878.44;;;1.40;58.28
63568;BME280;49715;42.386;20.434;2023-02-21T03:07:01;97878.28;;;1.43;58.41
63568;BME280;49715;42.386;20.434;2023-02-21T03:12:17;97882.41;;;1.47;57.82
63568;BME280;49715;42.386;20.434;2023-02-21T03:14:54;97878.38;;;1.42;57.92
63568;BME280;49715;42.386;20.434;2023-02-21T03:17:25;97865.56;;;1.39;57.43
63568;BME280;49715;42.386;20.434;2023-02-21T03:19:52;97872.66;;;1.35;58.64
63568;BME280;49715;42.386;20.434;2023-02-21T03:22:22;97878.69;;;1.36;58.49
63568;BME280;49715;42.386;20.434;2023-02-21T03:24:49;97870.06;;;1.35;56.22
63568;BME280;49715;42.386;20.434;2023-02-21T03:27:17;97878.19;;;1.29;58.39
63568;BME280;49715;42.386;20.434;2023-02-21T03:30:11;97880.94;;;1.26;58.50
63568;BME280;49715;42.386;20.434;2023-02-21T03:32:39;97878.44;;;1.24;58.11
63568;BME280;49715;42.386;20.434;2023-02-21T03:35:08;97880.28;;;1.22;59.19
63568;BME280;49715;42.386;20.434;2023-02-21T03:37:37;97874.31;;;1.20;57.95
63568;BME280;49715;42.386;20.434;2023-02-21T03:40:08;97874.31;;;1.20;59.20
63568;BME280;49715;42.386;20.434;2023-02-21T03:42:36;97863.84;;;1.22;57.10
63568;BME280;49715;42.386;20.434;2023-02-21T03:45:03;97856.16;;;1.20;58.20
63568;BME280;49715;42.386;20.434;2023-02-21T03:47:31;97863.59;;;1.26;57.38
63568;BME280;49715;42.386;20.434;2023-02-21T03:49:58;97854.25;;;1.40;57.73
63568;BME280;49715;42.386;20.434;2023-02-21T03:52:24;97863.53;;;1.44;59.18
63568;BME280;49715;42.386;20.434;2023-02-21T03:54:51;97870.16;;;1.49;58.94
63568;BME280;49715;42.386;20.434;2023-02-21T03:57:20;97856.25;;;1.50;59.19
63568;BME280;49715;42.386;20.434;2023-02-21T03:59:48;97869.06;;;1.53;58.26
63568;BME280;49715;42.386;20.434;2023-02-21T04:02:15;97879.56;;;1.52;58.65
63568;BME280;49715;42.386;20.434;2023-02-21T04:04:41;97876.97;;;1.52;58.62
63568;BME280;49715;42.386;20.434;2023-02-21T04:07:12;97877.13;;;1.49;58.69
63568;BME280;49715;42.386;20.434;2023-02-21T04:09:38;97877.22;;;1.47;56.26
63568;BME280;49715;42.386;20.434;2023-02-21T04:12:06;97882.13;;;1.36;58.77
63568;BME280;49715;42.386;20.434;2023-02-21T04:14:34;97869.47;;;1.30;58.45
63568;BME280;49715;42.386;20.434;2023-02-21T04:17:01;97873.16;;;1.26;58.16
63568;BME280;49715;42.386;20.434;2023-02-21T04:19:28;97874.19;;;1.23;58.84
63568;BME280;49715;42.386;20.434;2023-02-21T04:21:54;97870.66;;;1.24;57.99
63568;BME280;49715;42.386;20.434;2023-02-21T04:24:21;97873.41;;;1.21;59.31
63568;BME280;49715;42.386;20.434;2023-02-21T04:26:47;97858.94;;;1.17;59.63
63568;BME280;49715;42.386;20.434;2023-02-21T04:29:14;97872.91;;;1.15;59.51
63568;BME280;49715;42.386;20.434;2023-02-21T04:31:40;97873.00;;;1.13;58.10
63568;BME280;49715;42.386;20.434;2023-02-21T04:34:11;97876.91;;;1.05;58.67
63568;BME280;49715;42.386;20.434;2023-02-21T04:36:38;97870.09;;;1.02;58.93
63568;BME280;49715;42.386;20.434;2023-02-21T04:39:05;97886.59;;;1.01;58.25
63568;BME280;49715;42.386;20.434;2023-02-21T04:41:32;97870.28;;;0.99;57.16
63568;BME280;49715;42.386;20.434;2023-02-21T04:43:58;97880.72;;;0.97;58.76
63568;BME280;49715;42.386;20.434;2023-02-21T04:46:24;97877.28;;;0.97;57.33
63568;BME280;49715;42.386;20.434;2023-02-21T04:48:51;97877.97;;;1.00;58.72
63568;BME280;49715;42.386;20.434;2023-02-21T04:51:18;97883.06;;;1.02;59.06
63568;BME280;49715;42.386;20.434;2023-02-21T04:53:46;97881.16;;;1.06;58.85
63568;BME280;49715;42.386;20.434;2023-02-21T04:56:12;97885.38;;;1.08;57.48
63568;BME280;49715;42.386;20.434;2023-02-21T04:58:39;97874.06;;;1.09;58.83
63568;BME280;49715;42.386;20.434;2023-02-21T05:01:06;97872.31;;;1.10;59.17
63568;BME280;49715;42.386;20.434;2023-02-21T05:03:32;97864.53;;;1.10;58.43
63568;BME280;49715;42.386;20.434;2023-02-21T05:05:58;97858.31;;;1.12;59.07
63568;BME280;49715;42.386;20.434;2023-02-21T05:08:24;97866.78;;;1.16;58.57
63568;BME280;49715;42.386;20.434;2023-02-21T05:10:51;97863.84;;;1.22;56.83
63568;BME280;49715;42.386;20.434;2023-02-21T05:13:20;97861.00;;;1.26;58.08
63568;BME280;49715;42.386;20.434;2023-02-21T05:15:47;97864.47;;;1.27;56.40
63568;BME280;49715;42.386;20.434;2023-02-21T05:18:14;97862.19;;;1.21;57.20
63568;BME280;49715;42.386;20.434;2023-02-21T05:20:50;97871.22;;;1.14;57.51
63568;BME280;49715;42.386;20.434;2023-02-21T05:23:17;97875.88;;;1.07;58.90
63568;BME280;49715;42.386;20.434;2023-02-21T05:25:44;97869.94;;;1.05;59.12
63568;BME280;49715;42.386;20.434;2023-02-21T05:28:10;97870.88;;;1.04;59.02
63568;BME280;49715;42.386;20.434;2023-02-21T05:30:36;97875.16;;;1.05;58.78
63568;BME280;49715;42.386;20.434;2023-02-21T05:33:02;97878.66;;;1.04;59.19
63568;BME280;49715;42.386;20.434;2023-02-21T05:35:28;97877.75;;;1.05;59.22
63568;BME280;49715;42.386;20.434;2023-02-21T05:37:55;97885.44;;;1.07;60.06
63568;BME280;49715;42.386;20.434;2023-02-21T05:40:21;97889.88;;;1.05;58.75
63568;BME280;49715;42.386;20.434;2023-02-21T05:42:47;97886.44;;;1.04;58.80
63568;BME280;49715;42.386;20.434;2023-02-21T05:45:13;97885.69;;;1.02;59.27
63568;BME280;49715;42.386;20.434;2023-02-21T05:47:39;97883.03;;;1.03;58.74
63568;BME280;49715;42.386;20.434;2023-02-21T05:50:05;97888.03;;;1.07;57.45
63568;BME280;49715;42.386;20.434;2023-02-21T05:52:32;97887.28;;;1.05;59.04
63568;BME280;49715;42.386;20.434;2023-02-21T05:54:58;97890.72;;;1.05;58.99
63568;BME280;49715;42.386;20.434;2023-02-21T05:57:24;97898.94;;;1.13;59.04
63568;BME280;49715;42.386;20.434;2023-02-21T05:59:50;97898.63;;;1.19;58.03
63568;BME280;49715;42.386;20.434;2023-02-21T06:02:16;97890.50;;;1.25;58.48
63568;BME280;49715;42.386;20.434;2023-02-21T06:04:43;97899.72;;;1.31;58.82
63568;BME280;49715;42.386;20.434;2023-02-21T06:07:10;97905.34;;;1.39;58.53
63568;BME280;49715;42.386;20.434;2023-02-21T06:09:36;97908.28;;;1.49;57.37
63568;BME280;49715;42.386;20.434;2023-02-21T06:12:02;97908.88;;;1.54;58.25
63568;BME280;49715;42.386;20.434;2023-02-21T06:14:28;97905.88;;;1.62;58.06
63568;BME280;49715;42.386;20.434;2023-02-21T06:16:55;97912.31;;;1.70;57.96
63568;BME280;49715;42.386;20.434;2023-02-21T06:19:22;97916.03;;;1.82;58.34
63568;BME280;49715;42.386;20.434;2023-02-21T06:21:48;97915.25;;;1.96;58.16
63568;BME280;49715;42.386;20.434;2023-02-21T06:24:14;97908.44;;;2.09;57.51
63568;BME280;49715;42.386;20.434;2023-02-21T06:26:40;97911.44;;;2.17;58.91
63568;BME280;49715;42.386;20.434;2023-02-21T06:29:07;97915.28;;;2.26;57.99
63568;BME280;49715;42.386;20.434;2023-02-21T06:31:33;97908.91;;;2.31;59.37
63568;BME280;49715;42.386;20.434;2023-02-21T06:34:01;97911.16;;;2.38;57.95
63568;BME280;49715;42.386;20.434;2023-02-21T06:36:27;97912.66;;;2.42;57.85
63568;BME280;49715;42.386;20.434;2023-02-21T06:38:54;97913.97;;;2.49;57.52
63568;BME280;49715;42.386;20.434;2023-02-21T06:41:26;97914.38;;;2.57;59.32
63568;BME280;49715;42.386;20.434;2023-02-21T06:43:54;97918.31;;;2.64;57.54
63568;BME280;49715;42.386;20.434;2023-02-21T06:46:22;97918.66;;;2.72;57.06
63568;BME280;49715;42.386;20.434;2023-02-21T06:48:49;97921.66;;;2.80;56.39
63568;BME280;49715;42.386;20.434;2023-02-21T06:51:15;97926.72;;;2.83;57.09
63568;BME280;49715;42.386;20.434;2023-02-21T06:53:42;97923.91;;;2.87;57.26
63568;BME280;49715;42.386;20.434;2023-02-21T06:56:12;97915.72;;;2.93;56.32
63568;BME280;49715;42.386;20.434;2023-02-21T06:58:39;97911.84;;;3.00;57.31
63568;BME280;49715;42.386;20.434;2023-02-21T07:01:05;97904.41;;;3.08;56.43
63568;BME280;49715;42.386;20.434;2023-02-21T07:03:32;97916.97;;;3.16;57.03
63568;BME280;49715;42.386;20.434;2023-02-21T07:05:59;97910.91;;;3.29;57.11
63568;BME280;49715;42.386;20.434;2023-02-21T07:08:25;97911.09;;;3.41;56.33
63568;BME280;49715;42.386;20.434;2023-02-21T07:10:51;97916.56;;;3.50;56.78
63568;BME280;49715;42.386;20.434;2023-02-21T07:13:18;97906.34;;;3.61;56.75
63568;BME280;49715;42.386;20.434;2023-02-21T07:15:46;97913.28;;;3.75;56.53
63568;BME280;49715;42.386;20.434;2023-02-21T07:18:13;97909.81;;;3.89;56.46
63568;BME280;49715;42.386;20.434;2023-02-21T07:20:40;97896.81;;;4.02;55.82
63568;BME280;49715;42.386;20.434;2023-02-21T07:23:06;97897.19;;;4.10;56.28
63568;BME280;49715;42.386;20.434;2023-02-21T07:25:32;97896.66;;;4.18;56.07
63568;BME280;49715;42.386;20.434;2023-02-21T07:28:00;97888.91;;;4.30;56.06
63568;BME280;49715;42.386;20.434;2023-02-21T07:30:32;97885.47;;;4.43;55.83
63568;BME280;49715;42.386;20.434;2023-02-21T07:32:59;97873.41;;;4.54;55.39
63568;BME280;49715;42.386;20.434;2023-02-21T07:35:25;97875.28;;;4.65;55.62
63568;BME280;49715;42.386;20.434;2023-02-21T07:37:51;97877.16;;;4.76;55.42
63568;BME280;49715;42.386;20.434;2023-02-21T07:40:18;97879.88;;;4.87;55.18
63568;BME280;49715;42.386;20.434;2023-02-21T07:42:44;97874.78;;;4.98;55.12
63568;BME280;49715;42.386;20.434;2023-02-21T07:45:14;97877.38;;;5.11;55.12
63568;BME280;49715;42.386;20.434;2023-02-21T07:47:41;97860.63;;;5.26;54.88
63568;BME280;49715;42.386;20.434;2023-02-21T07:50:11;97864.78;;;5.41;54.08
63568;BME280;49715;42.386;20.434;2023-02-21T07:52:38;97861.31;;;5.54;54.47
63568;BME280;49715;42.386;20.434;2023-02-21T07:55:07;97856.38;;;5.62;54.50
63568;BME280;49715;42.386;20.434;2023-02-21T07:57:33;97853.19;;;5.82;54.61
63568;BME280;49715;42.386;20.434;2023-02-21T08:00:01;97860.91;;;5.97;54.37
63568;BME280;49715;42.386;20.434;2023-02-21T08:02:27;97853.09;;;6.08;54.59
63568;BME280;49715;42.386;20.434;2023-02-21T08:04:53;97848.00;;;6.17;53.71
63568;BME280;49715;42.386;20.434;2023-02-21T08:07:20;97843.78;;;6.28;53.48
63568;BME280;49715;42.386;20.434;2023-02-21T08:09:47;97845.59;;;6.38;53.32
63568;BME280;49715;42.386;20.434;2023-02-21T08:12:13;97842.91;;;6.51;53.40
63568;BME280;49715;42.386;20.434;2023-02-21T08:14:41;97841.13;;;6.63;52.14
63568;BME280;49715;42.386;20.434;2023-02-21T08:17:08;97835.19;;;6.72;52.64
63568;BME280;49715;42.386;20.434;2023-02-21T08:19:38;97837.00;;;6.83;52.32
63568;BME280;49715;42.386;20.434;2023-02-21T08:22:05;97838.81;;;6.93;52.83
63568;BME280;49715;42.386;20.434;2023-02-21T08:24:32;97835.22;;;7.06;52.73
63568;BME280;49715;42.386;20.434;2023-02-21T08:26:59;97831.69;;;7.18;52.88
63568;BME280;49715;42.386;20.434;2023-02-21T08:29:26;97827.38;;;7.28;52.78
63568;BME280;49715;42.386;20.434;2023-02-21T08:31:53;97812.13;;;7.33;52.25
63568;BME280;49715;42.386;20.434;2023-02-21T08:34:19;97833.19;;;7.54;51.70
63568;BME280;49715;42.386;20.434;2023-02-21T08:36:47;97821.59;;;7.68;51.74
63568;BME280;49715;42.386;20.434;2023-02-21T08:39:13;97817.03;;;7.81;51.68
63568;BME280;49715;42.386;20.434;2023-02-21T08:41:41;97818.66;;;7.93;51.38
63568;BME280;49715;42.386;20.434;2023-02-21T08:44:10;97821.97;;;8.07;51.70
63568;BME280;49715;42.386;20.434;2023-02-21T08:46:40;97820.94;;;8.19;51.79
63568;BME280;49715;42.386;20.434;2023-02-21T08:49:07;97807.19;;;8.26;51.42
63568;BME280;49715;42.386;20.434;2023-02-21T08:51:38;97819.28;;;8.50;51.22
63568;BME280;49715;42.386;20.434;2023-02-21T08:54:07;97814.25;;;8.68;51.10
63568;BME280;49715;42.386;20.434;2023-02-21T08:56:33;97811.19;;;8.84;51.12
63568;BME280;49715;42.386;20.434;2023-02-21T08:59:00;97817.63;;;9.00;51.09
63568;BME280;49715;42.386;20.434;2023-02-21T09:01:31;97824.19;;;9.16;51.38
63568;BME280;49715;42.386;20.434;2023-02-21T09:03:57;97809.72;;;9.31;50.49
63568;BME280;49715;42.386;20.434;2023-02-21T09:06:24;97809.34;;;9.45;50.52
63568;BME280;49715;42.386;20.434;2023-02-21T09:08:51;97808.84;;;9.61;50.28
63568;BME280;49715;42.386;20.434;2023-02-21T09:11:18;97806.53;;;9.77;50.43
63568;BME280;49715;42.386;20.434;2023-02-21T09:13:44;97806.81;;;9.94;50.25
63568;BME280;49715;42.386;20.434;2023-02-21T09:16:10;97811.69;;;10.08;49.77
63568;BME280;49715;42.386;20.434;2023-02-21T09:18:37;97806.81;;;10.23;49.84
63568;BME280;49715;42.386;20.434;2023-02-21T09:21:12;97808.09;;;10.38;49.69
63568;BME280;49715;42.386;20.434;2023-02-21T09:23:39;97806.84;;;10.52;49.41
63568;BME280;49715;42.386;20.434;2023-02-21T09:26:05;97806.81;;;10.62;49.45
63568;BME280;49715;42.386;20.434;2023-02-21T09:28:31;97790.72;;;10.65;49.09
63568;BME280;49715;42.386;20.434;2023-02-21T09:30:58;97805.69;;;10.83;49.02
63568;BME280;49715;42.386;20.434;2023-02-21T09:33:24;97798.56;;;10.94;48.93
63568;BME280;49715;42.386;20.434;2023-02-21T09:35:50;97793.25;;;11.03;48.92
63568;BME280;49715;42.386;20.434;2023-02-21T09:38:18;97789.06;;;11.11;48.70
63568;BME280;49715;42.386;20.434;2023-02-21T09:40:47;97784.56;;;11.21;48.77
63568;BME280;49715;42.386;20.434;2023-02-21T09:43:17;97783.25;;;11.34;48.28
63568;BME280;49715;42.386;20.434;2023-02-21T09:45:44;97774.84;;;11.49;48.16
63568;BME280;49715;42.386;20.434;2023-02-21T09:48:15;97777.16;;;11.62;47.62
63568;BME280;49715;42.386;20.434;2023-02-21T09:50:44;97765.53;;;11.72;47.78
63568;BME280;49715;42.386;20.434;2023-02-21T09:53:12;97758.09;;;11.85;47.88
63568;BME280;49715;42.386;20.434;2023-02-21T09:55:39;97763.00;;;11.98;47.77
63568;BME280;49715;42.386;20.434;2023-02-21T09:58:13;97754.72;;;12.11;47.59
63568;BME280;49715;42.386;20.434;2023-02-21T10:00:42;97747.91;;;12.26;46.88
63568;BME280;49715;42.386;20.434;2023-02-21T10:10:57;97725.91;;;12.78;46.32
63568;BME280;49715;42.386;20.434;2023-02-21T10:13:37;97721.84;;;12.92;46.19
63568;BME280;49715;42.386;20.434;2023-02-21T10:16:15;97721.09;;;13.07;44.94
63568;BME280;49715;42.386;20.434;2023-02-21T10:21:34;97708.63;;;13.26;44.69
63568;BME280;49715;42.386;20.434;2023-02-21T10:24:08;97702.06;;;13.38;45.36
63568;BME280;49715;42.386;20.434;2023-02-21T10:26:36;97697.78;;;13.53;45.32
63568;BME280;49715;42.386;20.434;2023-02-21T10:29:16;97699.47;;;13.71;44.93
63568;BME280;49715;42.386;20.434;2023-02-21T10:31:47;97692.19;;;13.89;44.89
63568;BME280;49715;42.386;20.434;2023-02-21T10:34:22;97682.59;;;14.04;43.18
63568;BME280;49715;42.386;20.434;2023-02-21T10:36:49;97683.25;;;14.23;44.25
63568;BME280;49715;42.386;20.434;2023-02-21T10:39:17;97680.25;;;14.42;43.14
63568;BME280;49715;42.386;20.434;2023-02-21T10:41:44;97667.16;;;14.57;44.22
63568;BME280;49715;42.386;20.434;2023-02-21T10:44:19;97665.63;;;14.71;43.49
63568;BME280;49715;42.386;20.434;2023-02-21T10:49:24;97659.19;;;15.04;43.91
63568;BME280;49715;42.386;20.434;2023-02-21T10:54:29;97641.41;;;15.36;43.80
63568;BME280;49715;42.386;20.434;2023-02-21T10:56:56;97642.00;;;15.46;43.62
63568;BME280;49715;42.386;20.434;2023-02-21T10:59:32;97624.38;;;15.53;43.08
63568;BME280;49715;42.386;20.434;2023-02-21T11:02:08;97623.66;;;15.67;42.98
63568;BME280;49715;42.386;20.434;2023-02-21T11:04:48;97624.63;;;15.89;43.05
63568;BME280;49715;42.386;20.434;2023-02-21T11:07:16;97619.81;;;16.08;42.75
63568;BME280;49715;42.386;20.434;2023-02-21T11:09:44;97610.84;;;16.23;42.30
63568;BME280;49715;42.386;20.434;2023-02-21T11:12:21;97595.00;;;16.30;43.03
63568;BME280;49715;42.386;20.434;2023-02-21T11:17:18;97583.34;;;16.31;41.15
63568;BME280;49715;42.386;20.434;2023-02-21T11:19:46;97577.00;;;16.47;41.91
63568;BME280;49715;42.386;20.434;2023-02-21T11:22:15;97574.59;;;16.67;41.64
63568;BME280;49715;42.386;20.434;2023-02-21T11:24:44;97562.59;;;16.86;40.68
63568;BME280;49715;42.386;20.434;2023-02-21T11:27:11;97560.59;;;17.09;40.45
63568;BME280;49715;42.386;20.434;2023-02-21T11:29:40;97553.66;;;17.30;40.63
63568;BME280;49715;42.386;20.434;2023-02-21T11:32:30;97558.13;;;17.50;39.30
63568;BME280;49715;42.386;20.434;2023-02-21T11:35:00;97543.63;;;17.74;40.09
63568;BME280;49715;42.386;20.434;2023-02-21T11:37:28;97537.03;;;17.98;41.18
63568;BME280;49715;42.386;20.434;2023-02-21T11:39:54;97531.44;;;18.21;39.81
63568;BME280;49715;42.386;20.434;2023-02-21T11:42:28;97537.13;;;18.46;38.89
63568;BME280;49715;42.386;20.434;2023-02-21T11:47:45;97517.41;;;18.89;36.48
63568;BME280;49715;42.386;20.434;2023-02-21T11:55:38;97507.00;;;19.34;38.27
63568;BME280;49715;42.386;20.434;2023-02-21T11:58:08;97509.66;;;19.40;35.61
63568;BME280;49715;42.386;20.434;2023-02-21T12:18:51;97461.66;;;20.31;36.21
63568;BME280;49715;42.386;20.434;2023-02-21T12:26:53;97448.97;;;20.65;34.88
63568;BME280;49715;42.386;20.434;2023-02-21T12:29:35;97443.09;;;20.81;34.46
63568;BME280;49715;42.386;20.434;2023-02-21T12:37:49;97435.56;;;21.03;32.90
63568;BME280;49715;42.386;20.434;2023-02-21T12:40:32;97430.38;;;21.08;33.56
63568;BME280;49715;42.386;20.434;2023-02-21T12:48:28;97436.97;;;21.38;32.10
63568;BME280;49715;42.386;20.434;2023-02-21T12:50:57;97425.41;;;21.37;34.60
63568;BME280;49715;42.386;20.434;2023-02-21T12:53:44;97417.53;;;21.42;34.36
63568;BME280;49715;42.386;20.434;2023-02-21T12:56:23;97416.06;;;21.46;31.08
63568;BME280;49715;42.386;20.434;2023-02-21T12:59:03;97409.59;;;21.54;30.46
63568;BME280;49715;42.386;20.434;2023-02-21T13:01:35;97404.94;;;21.68;31.15
63568;BME280;49715;42.386;20.434;2023-02-21T13:04:23;97402.75;;;21.76;32.52
63568;BME280;49715;42.386;20.434;2023-02-21T13:06:56;97398.69;;;21.74;32.63
63568;BME280;49715;42.386;20.434;2023-02-21T13:09:29;97400.94;;;21.77;33.27
63568;BME280;49715;42.386;20.434;2023-02-21T13:14:45;97388.16;;;21.91;31.97
63568;BME280;49715;42.386;20.434;2023-02-21T13:17:14;97392.44;;;21.98;33.96
63568;BME280;49715;42.386;20.434;2023-02-21T13:20:04;97389.22;;;22.08;30.91
63568;BME280;49715;42.386;20.434;2023-02-21T13:22:32;97388.56;;;22.13;31.37
63568;BME280;49715;42.386;20.434;2023-02-21T13:28:03;97390.84;;;22.09;30.38
63568;BME280;49715;42.386;20.434;2023-02-21T13:30:37;97377.53;;;22.02;33.23
63568;BME280;49715;42.386;20.434;2023-02-21T13:33:06;97375.28;;;21.99;33.28
63568;BME280;49715;42.386;20.434;2023-02-21T13:35:47;97378.91;;;22.05;32.00
63568;BME280;49715;42.386;20.434;2023-02-21T13:38:16;97360.94;;;22.05;33.50
63568;BME280;49715;42.386;20.434;2023-02-21T13:40:48;97377.91;;;22.06;28.37
63568;BME280;49715;42.386;20.434;2023-02-21T13:45:50;97366.16;;;22.00;31.34
63568;BME280;49715;42.386;20.434;2023-02-21T13:48:22;97366.50;;;21.92;33.33
63568;BME280;49715;42.386;20.434;2023-02-21T13:50:50;97367.22;;;21.99;34.17
63568;BME280;49715;42.386;20.434;2023-02-21T13:53:18;97363.72;;;21.99;32.17
63568;BME280;49715;42.386;20.434;2023-02-21T13:58:34;97371.00;;;22.10;33.09
63568;BME280;49715;42.386;20.434;2023-02-21T14:01:20;97368.78;;;22.07;32.74
63568;BME280;49715;42.386;20.434;2023-02-21T14:03:48;97356.06;;;22.02;31.15
63568;BME280;49715;42.386;20.434;2023-02-21T14:06:21;97359.47;;;22.09;32.19
63568;BME280;49715;42.386;20.434;2023-02-21T14:08:49;97360.09;;;22.12;32.11
63568;BME280;49715;42.386;20.434;2023-02-21T14:11:20;97344.50;;;22.02;30.97
63568;BME280;49715;42.386;20.434;2023-02-21T14:13:55;97354.72;;;22.12;31.74
63568;BME280;49715;42.386;20.434;2023-02-21T14:16:25;97358.38;;;22.17;33.67
63568;BME280;49715;42.386;20.434;2023-02-21T14:18:57;97362.09;;;22.16;32.77
63568;BME280;49715;42.386;20.434;2023-02-21T14:24:11;97360.06;;;21.93;30.79
63568;BME280;49715;42.386;20.434;2023-02-21T14:31:54;97359.09;;;21.51;31.63
63568;BME280;49715;42.386;20.434;2023-02-21T14:36:57;97347.00;;;21.42;33.80
63568;BME280;49715;42.386;20.434;2023-02-21T14:39:29;97355.19;;;21.47;32.67
63568;BME280;49715;42.386;20.434;2023-02-21T14:44:57;97338.13;;;21.41;31.32
63568;BME280;49715;42.386;20.434;2023-02-21T15:02:49;97353.41;;;21.41;30.73
63568;BME280;49715;42.386;20.434;2023-02-21T15:05:20;97330.00;;;21.29;32.75
63568;BME280;49715;42.386;20.434;2023-02-21T15:12:55;97341.41;;;20.93;32.76
63568;BME280;49715;42.386;20.434;2023-02-21T15:15:25;97342.38;;;20.74;31.95
63568;BME280;49715;42.386;20.434;2023-02-21T15:17:53;97332.84;;;20.53;33.18
63568;BME280;49715;42.386;20.434;2023-02-21T15:20:21;97342.25;;;20.30;33.07
63568;BME280;49715;42.386;20.434;2023-02-21T15:22:54;97346.66;;;20.05;33.07
63568;BME280;49715;42.386;20.434;2023-02-21T15:25:21;97358.97;;;19.68;31.60
63568;BME280;49715;42.386;20.434;2023-02-21T15:30:16;97347.69;;;19.13;33.07
63568;BME280;49715;42.386;20.434;2023-02-21T15:32:43;97346.28;;;18.90;34.86
63568;BME280;49715;42.386;20.434;2023-02-21T15:35:19;97353.81;;;18.67;34.08
63568;BME280;49715;42.386;20.434;2023-02-21T15:37:47;97364.25;;;18.42;33.60